createdAt,value
2023-02-22T00:01:51.250Z,8.80
2023-02-22T00:04:21.417Z,8.80
2023-02-22T00:06:50.047Z,8.02
2023-02-22T00:09:20.805Z,8.02
2023-02-22T00:11:49.041Z,9.32
2023-02-22T00:14:21.543Z,8.85
2023-02-22T00:16:48.940Z,9.95
2023-02-22T00:19:16.280Z,10.57
2023-02-22T00:21:44.867Z,9.77
2023-02-22T00:24:23.513Z,9.52
2023-02-22T00:26:57.839Z,9.63
2023-02-22T00:29:25.666Z,9.65
2023-02-22T00:31:55.210Z,9.43
2023-02-22T00:34:24.314Z,10.57
2023-02-22T00:36:51.793Z,9.30
2023-02-22T00:39:19.224Z,8.70
2023-02-22T00:41:46.633Z,9.77
2023-02-22T00:44:17.621Z,10.30
2023-02-22T00:46:45.986Z,9.20
2023-02-22T00:49:13.438Z,10.38
2023-02-22T00:51:40.742Z,9.02
2023-02-22T00:54:08.287Z,8.75
2023-02-22T00:56:35.915Z,9.18
2023-02-22T00:59:03.292Z,9.23
2023-02-22T01:01:31.557Z,9.15
2023-02-22T01:03:59.261Z,8.52
2023-02-22T01:06:26.771Z,9.77
2023-02-22T01:08:56.075Z,9.02
2023-02-22T01:11:24.770Z,9.77
2023-02-22T01:13:54.222Z,9.13
2023-02-22T01:16:22.510Z,8.55
2023-02-22T01:18:52.449Z,9.88
2023-02-22T01:21:21.415Z,9.68
2023-02-22T01:23:48.868Z,9.50
2023-02-22T01:26:16.371Z,9.43
2023-02-22T01:28:43.683Z,9.95
2023-02-22T01:31:11.246Z,9.00
2023-02-22T01:33:39.200Z,9.93
2023-02-22T01:36:11.421Z,9.63
2023-02-22T01:38:39.551Z,8.77
2023-02-22T01:41:06.993Z,9.85
2023-02-22T01:43:34.548Z,10.18
2023-02-22T01:46:06.227Z,9.27
2023-02-22T01:48:56.571Z,9.18
2023-02-22T01:51:38.989Z,9.32
2023-02-22T01:54:06.367Z,8.65
2023-02-22T01:56:36.598Z,9.27
2023-02-22T01:59:07.613Z,10.10
2023-02-22T02:01:40.089Z,8.75
2023-02-22T02:04:12.908Z,9.70
2023-02-22T02:06:42.368Z,9.35
2023-02-22T02:09:20.556Z,7.95
2023-02-22T02:11:48.069Z,8.02
2023-02-22T02:14:15.856Z,8.65
2023-02-22T02:16:46.298Z,8.45
2023-02-22T02:19:33.342Z,9.00
2023-02-22T02:22:13.206Z,7.78
2023-02-22T02:24:40.490Z,7.90
2023-02-22T02:27:17.184Z,8.75
2023-02-22T02:30:13.980Z,8.85
2023-02-22T02:33:03.387Z,8.68
2023-02-22T02:35:43.570Z,8.75
2023-02-22T02:38:41.420Z,8.73
2023-02-22T02:41:26.560Z,8.90
2023-02-22T02:44:07.871Z,8.25
2023-02-22T02:47:01.960Z,9.13
2023-02-22T02:49:48.816Z,8.43
2023-02-22T02:52:18.061Z,8.80
2023-02-22T02:54:48.652Z,8.85
2023-02-22T02:57:15.988Z,8.63
2023-02-22T02:59:43.761Z,8.90
2023-02-22T03:02:34.770Z,8.82
2023-02-22T03:05:07.433Z,10.23
2023-02-22T03:07:34.817Z,8.50
2023-02-22T03:10:33.410Z,9.13
2023-02-22T03:13:09.367Z,9.13
2023-02-22T03:16:04.783Z,9.77
2023-02-22T03:18:53.140Z,9.85
2023-02-22T03:21:42.111Z,10.32
2023-02-22T03:24:16.900Z,9.63
2023-02-22T03:26:53.431Z,10.23
2023-02-22T03:29:24.530Z,10.63
2023-02-22T03:32:01.468Z,9.98
2023-02-22T03:34:40.833Z,9.93
2023-02-22T03:37:19.263Z,9.55
2023-02-22T03:39:49.903Z,10.77
2023-02-22T03:44:55.192Z,11.35
2023-02-22T03:47:32.574Z,10.43
2023-02-22T03:52:37.713Z,11.75
2023-02-22T03:55:12.323Z,12.10
2023-02-22T03:57:43.814Z,10.57
2023-02-22T04:00:15.416Z,10.85
2023-02-22T04:02:44.773Z,11.63
2023-02-22T04:05:18.457Z,10.75
2023-02-22T04:07:46.047Z,10.60
2023-02-22T04:10:17.502Z,11.20
2023-02-22T04:12:45.278Z,11.52
2023-02-22T04:15:16.175Z,11.02
2023-02-22T04:17:44.535Z,11.05
2023-02-22T04:20:17.567Z,11.05
2023-02-22T04:22:49.449Z,11.40
2023-02-22T04:25:19.128Z,12.95
2023-02-22T04:27:56.884Z,11.73
2023-02-22T04:30:35.917Z,12.07
2023-02-22T04:33:08.409Z,12.27
2023-02-22T04:35:37.196Z,11.77
2023-02-22T04:38:06.475Z,11.80
2023-02-22T04:40:33.832Z,11.80
2023-02-22T04:43:01.509Z,11.80
2023-02-22T04:45:29.881Z,12.00
2023-02-22T04:47:59.242Z,11.68
2023-02-22T04:50:28.313Z,11.70
2023-02-22T04:52:57.463Z,11.60
2023-02-22T04:55:24.845Z,11.70
2023-02-22T04:57:52.238Z,12.77
2023-02-22T05:00:21.923Z,12.25
2023-02-22T05:05:19.921Z,12.02
2023-02-22T05:07:47.865Z,11.40
2023-02-22T05:10:15.864Z,11.88
2023-02-22T05:12:43.312Z,13.07
2023-02-22T05:15:11.522Z,13.13
2023-02-22T05:17:38.876Z,12.27
2023-02-22T05:20:08.670Z,11.80
2023-02-22T05:23:05.604Z,13.40
2023-02-22T05:25:33.518Z,12.63
2023-02-22T05:28:10.773Z,10.95
2023-02-22T05:30:39.866Z,12.65
2023-02-22T05:33:09.964Z,12.50
2023-02-22T05:35:39.965Z,11.32
2023-02-22T05:38:33.030Z,12.57
2023-02-22T05:41:00.356Z,11.55
2023-02-22T05:43:27.777Z,12.35
2023-02-22T05:45:55.714Z,12.20
2023-02-22T05:48:23.072Z,12.65
2023-02-22T05:50:50.445Z,13.02
2023-02-22T05:53:19.896Z,11.90
2023-02-22T05:55:47.394Z,12.43
2023-02-22T05:58:15.180Z,13.15
2023-02-22T06:00:42.693Z,11.63
2023-02-22T06:03:11.193Z,11.00
2023-02-22T06:05:41.171Z,11.80
2023-02-22T06:08:08.473Z,12.10
2023-02-22T06:10:36.512Z,12.07
2023-02-22T06:13:04.545Z,11.55
2023-02-22T06:15:32.034Z,11.35
2023-02-22T06:18:00.193Z,12.45
2023-02-22T06:20:29.644Z,11.63
2023-02-22T06:22:58.825Z,12.20
2023-02-22T06:25:30.902Z,11.10
2023-02-22T06:27:58.505Z,11.80
2023-02-22T06:30:29.431Z,11.43
2023-02-22T06:32:56.779Z,12.80
2023-02-22T06:35:24.322Z,11.38
2023-02-22T06:37:51.764Z,12.20
2023-02-22T06:40:19.095Z,11.70
2023-02-22T06:42:48.546Z,10.88
2023-02-22T06:45:17.451Z,12.27
2023-02-22T06:47:44.768Z,11.48
2023-02-22T06:50:29.011Z,11.68
2023-02-22T06:52:58.873Z,12.85
2023-02-22T06:55:29.087Z,11.45
2023-02-22T06:57:59.124Z,10.88
2023-02-22T07:00:28.018Z,13.45
2023-02-22T07:02:56.345Z,12.23
2023-02-22T07:05:24.640Z,11.32
2023-02-22T07:07:54.076Z,13.23
2023-02-22T07:10:29.875Z,11.83
2023-02-22T07:12:57.213Z,9.90
2023-02-22T07:15:26.032Z,11.27
2023-02-22T07:17:53.406Z,10.63
2023-02-22T07:20:21.194Z,11.30
2023-02-22T07:22:49.625Z,11.82
2023-02-22T07:25:17.238Z,11.05
2023-02-22T07:27:44.641Z,11.55
2023-02-22T07:30:34.030Z,10.30
2023-02-22T07:33:03.765Z,10.10
2023-02-22T07:35:33.215Z,10.73
2023-02-22T07:38:00.562Z,10.70
2023-02-22T07:40:28.282Z,10.75
2023-02-22T07:43:05.924Z,11.73
2023-02-22T07:45:35.758Z,11.77
2023-02-22T07:48:04.631Z,9.38
2023-02-22T07:50:33.004Z,11.15
2023-02-22T07:53:02.197Z,12.07
2023-02-22T07:55:31.187Z,9.93
2023-02-22T07:58:00.631Z,10.27
2023-02-22T08:00:44.136Z,10.80
2023-02-22T08:03:13.610Z,10.32
2023-02-22T08:05:44.711Z,10.63
2023-02-22T08:08:12.254Z,11.20
2023-02-22T08:10:39.581Z,10.73
2023-02-22T08:13:06.920Z,9.55
2023-02-22T08:15:39.755Z,10.25
2023-02-22T08:18:09.887Z,9.45
2023-02-22T08:20:38.458Z,8.80
2023-02-22T08:23:06.477Z,9.15
2023-02-22T08:25:34.013Z,9.32
2023-02-22T08:28:04.604Z,9.05
2023-02-22T08:30:34.913Z,9.75
2023-02-22T08:38:03.244Z,8.80
2023-02-22T08:43:02.772Z,8.18
2023-02-22T08:45:35.251Z,8.93
2023-02-22T08:48:02.668Z,8.77
2023-02-22T08:50:33.810Z,9.48
2023-02-22T08:53:02.435Z,9.07
2023-02-22T08:55:32.482Z,8.93
2023-02-22T08:58:01.527Z,8.32
2023-02-22T09:00:33.625Z,8.65
2023-02-22T09:03:01.686Z,8.60
2023-02-22T09:05:31.330Z,9.05
2023-02-22T09:08:02.434Z,8.88
2023-02-22T09:10:33.972Z,8.63
2023-02-22T09:13:02.360Z,8.40
2023-02-22T09:15:30.173Z,9.13
2023-02-22T09:17:57.944Z,9.00
2023-02-22T09:20:25.666Z,8.48
2023-02-22T09:22:54.615Z,8.77
2023-02-22T09:25:22.275Z,8.02
2023-02-22T09:27:51.955Z,8.10
2023-02-22T09:30:19.555Z,7.90
2023-02-22T09:32:47.201Z,7.88
2023-02-22T09:35:14.665Z,8.82
2023-02-22T09:37:45.073Z,8.40
2023-02-22T09:40:24.794Z,8.10
2023-02-22T09:43:03.457Z,7.88
2023-02-22T09:46:06.511Z,7.97
2023-02-22T09:48:37.848Z,7.80
2023-02-22T09:51:15.362Z,7.60
2023-02-22T09:53:49.780Z,6.88
2023-02-22T09:56:19.171Z,10.75
2023-02-22T09:58:55.201Z,7.90
2023-02-22T10:01:23.124Z,8.07
2023-02-22T10:03:54.538Z,8.32
2023-02-22T10:06:24.778Z,7.70
2023-02-22T10:09:00.074Z,7.57
2023-02-22T10:11:42.803Z,8.88
2023-02-22T10:14:10.134Z,7.65
2023-02-22T10:16:53.668Z,8.60
2023-02-22T10:19:41.086Z,8.07
2023-02-22T10:22:08.747Z,7.05
2023-02-22T10:24:49.209Z,7.63
2023-02-22T10:27:20.710Z,7.63
2023-02-22T10:29:54.607Z,7.45
2023-02-22T10:32:28.254Z,7.40
2023-02-22T10:34:55.705Z,7.10
2023-02-22T10:37:32.394Z,7.78
2023-02-22T10:40:11.573Z,7.35
2023-02-22T10:42:38.854Z,8.40
2023-02-22T10:45:25.748Z,7.57
2023-02-22T10:47:56.065Z,7.63
2023-02-22T10:52:52.428Z,6.68
2023-02-22T10:55:19.902Z,6.57
2023-02-22T10:57:52.605Z,7.60
2023-02-22T11:00:31.745Z,6.95
2023-02-22T11:03:03.536Z,6.60
2023-02-22T11:05:41.233Z,7.07
2023-02-22T11:08:33.028Z,7.82
2023-02-22T11:11:20.467Z,6.72
2023-02-22T11:13:57.567Z,7.65
2023-02-22T11:16:31.047Z,7.53
2023-02-22T11:19:18.132Z,7.70
2023-02-22T11:21:45.682Z,6.78
2023-02-22T11:24:15.602Z,7.25
2023-02-22T11:26:58.180Z,7.25
2023-02-22T11:29:36.787Z,7.10
2023-02-22T11:32:15.049Z,6.88
2023-02-22T11:34:43.266Z,7.13
2023-02-22T11:37:26.099Z,6.47
2023-02-22T11:40:07.096Z,6.57
2023-02-22T11:42:34.502Z,7.00
2023-02-22T11:45:21.616Z,6.95
2023-02-22T11:47:48.891Z,6.68
2023-02-22T11:50:33.603Z,6.50
2023-02-22T11:53:18.932Z,6.03
2023-02-22T11:55:56.923Z,6.45
2023-02-22T11:58:24.153Z,6.45
2023-02-22T12:01:17.563Z,6.20
2023-02-22T12:04:24.820Z,5.82
2023-02-22T12:07:17.474Z,6.78
2023-02-22T12:10:13.316Z,6.85
2023-02-22T12:13:09.708Z,6.80
2023-02-22T12:15:53.874Z,6.15
2023-02-22T12:18:56.067Z,7.00
2023-02-22T12:22:48.217Z,6.72
2023-02-22T12:26:02.321Z,5.47
2023-02-22T12:28:38.154Z,6.45
2023-02-22T12:31:20.185Z,6.00
2023-02-22T12:34:14.030Z,6.45
2023-02-22T12:36:50.465Z,5.43
2023-02-22T12:39:52.396Z,5.50
2023-02-22T12:43:02.323Z,5.40
2023-02-22T12:45:43.638Z,4.90
2023-02-22T12:48:26.629Z,5.82
2023-02-22T12:51:17.555Z,4.82
2023-02-22T12:53:55.556Z,4.75
2023-02-22T13:01:06.981Z,4.80
2023-02-22T13:03:42.308Z,4.25
2023-02-22T13:06:15.080Z,5.13
2023-02-22T13:08:52.870Z,4.07
2023-02-22T13:11:48.981Z,4.38
2023-02-22T13:14:16.246Z,3.90
2023-02-22T13:16:46.234Z,4.43
2023-02-22T13:19:39.062Z,4.15
2023-02-22T13:22:20.796Z,4.50
2023-02-22T13:25:03.215Z,4.07
2023-02-22T13:27:55.204Z,3.45
2023-02-22T13:30:29.091Z,3.38
2023-02-22T13:33:25.029Z,4.25
2023-02-22T13:36:17.954Z,3.70
2023-02-22T13:38:54.127Z,4.30
2023-02-22T13:41:32.968Z,3.63
2023-02-22T13:44:25.272Z,4.28
2023-02-22T13:47:11.674Z,3.70
2023-02-22T13:50:00.177Z,3.35
2023-02-22T13:52:30.010Z,3.67
2023-02-22T13:55:01.287Z,3.63
2023-02-22T13:57:30.880Z,3.83
2023-02-22T14:00:16.154Z,3.58
2023-02-22T14:03:13.516Z,3.63
2023-02-22T14:05:44.636Z,3.63
2023-02-22T14:08:17.489Z,3.33
2023-02-22T14:10:45.404Z,3.55
2023-02-22T14:13:14.056Z,3.25
2023-02-22T14:16:05.001Z,3.83
2023-02-22T14:18:46.709Z,4.00
2023-02-22T14:21:15.663Z,3.45
2023-02-22T14:23:45.010Z,2.80
2023-02-22T14:26:29.684Z,2.95
2023-02-22T14:29:16.190Z,3.00
2023-02-22T14:31:43.647Z,2.88
2023-02-22T14:34:13.937Z,3.25
2023-02-22T14:37:08.327Z,3.20
2023-02-22T14:39:43.531Z,3.05
2023-02-22T14:42:24.530Z,3.60
2023-02-22T14:45:09.777Z,3.47
2023-02-22T14:48:03.659Z,2.80
2023-02-22T14:50:48.823Z,3.15
2023-02-22T14:53:30.108Z,3.58
2023-02-22T14:56:04.011Z,3.20
2023-02-22T14:58:31.276Z,3.78
2023-02-22T15:00:58.541Z,3.42
2023-02-22T15:03:38.460Z,4.22
2023-02-22T15:06:22.793Z,3.50
2023-02-22T15:09:07.209Z,3.67
2023-02-22T15:11:34.087Z,3.92
2023-02-22T15:14:02.587Z,2.88
2023-02-22T15:16:34.721Z,3.47
2023-02-22T15:19:07.821Z,2.85
2023-02-22T15:21:35.463Z,3.00
2023-02-22T15:24:07.967Z,3.50
2023-02-22T15:27:00.384Z,3.78
2023-02-22T15:29:40.038Z,3.70
2023-02-22T15:32:31.634Z,4.00
2023-02-22T15:35:28.521Z,2.92
2023-02-22T15:38:26.595Z,3.60
2023-02-22T15:41:05.605Z,3.88
2023-02-22T15:43:32.902Z,4.47
2023-02-22T15:46:00.704Z,4.40
2023-02-22T15:48:29.647Z,4.05
2023-02-22T15:51:13.825Z,3.70
2023-02-22T15:53:49.843Z,4.35
2023-02-22T15:56:29.949Z,4.35
2023-02-22T15:59:06.059Z,4.22
2023-02-22T16:01:40.696Z,3.95
2023-02-22T16:04:21.243Z,3.35
2023-02-22T16:06:49.658Z,3.58
2023-02-22T16:09:26.138Z,2.85
2023-02-22T16:12:22.725Z,3.88
2023-02-22T16:14:52.401Z,3.47
2023-02-22T16:17:25.779Z,3.28
2023-02-22T16:19:53.519Z,3.88
2023-02-22T16:22:34.331Z,3.45
2023-02-22T16:25:19.731Z,4.22
2023-02-22T16:27:47.884Z,4.68
2023-02-22T16:30:25.634Z,6.05
2023-02-22T16:32:54.812Z,5.97
2023-02-22T16:35:28.518Z,6.40
2023-02-22T16:38:01.628Z,6.00
2023-02-22T16:40:35.762Z,6.30
2023-02-22T16:43:04.972Z,6.38
2023-02-22T16:45:31.932Z,6.65
2023-02-22T16:48:11.261Z,6.65
2023-02-22T16:50:38.149Z,6.18
2023-02-22T16:53:05.427Z,7.75
2023-02-22T16:55:33.327Z,8.75
2023-02-22T16:58:01.413Z,8.93
2023-02-22T17:00:31.675Z,8.93
2023-02-22T17:03:03.858Z,8.88
2023-02-22T17:05:34.966Z,7.82
2023-02-22T17:08:02.415Z,7.32
2023-02-22T17:10:29.820Z,8.70
2023-02-22T17:13:07.200Z,7.70
2023-02-22T17:15:40.338Z,7.82
2023-02-22T17:18:16.491Z,9.13
2023-02-22T17:20:45.053Z,8.95
2023-02-22T17:23:12.708Z,9.35
2023-02-22T17:25:42.775Z,9.02
2023-02-22T17:28:09.855Z,8.63
2023-02-22T17:30:37.750Z,9.18
2023-02-22T17:33:06.847Z,8.57
2023-02-22T17:35:37.275Z,10.10
2023-02-22T17:38:06.292Z,10.25
2023-02-22T17:40:38.385Z,9.10
2023-02-22T17:43:08.750Z,9.32
2023-02-22T17:48:06.071Z,8.82
2023-02-22T17:50:33.483Z,9.80
2023-02-22T17:53:00.692Z,10.88
2023-02-22T17:55:28.189Z,11.43
2023-02-22T17:57:58.521Z,9.65
2023-02-22T18:00:34.591Z,11.13
2023-02-22T18:03:07.296Z,10.18
2023-02-22T18:05:43.247Z,10.75
2023-02-22T18:08:10.944Z,10.95
2023-02-22T18:10:38.482Z,9.95
2023-02-22T18:13:05.501Z,8.88
2023-02-22T18:15:35.686Z,9.88
2023-02-22T18:20:38.351Z,9.43
2023-02-22T18:23:07.932Z,9.38
2023-02-22T18:25:36.178Z,9.90
2023-02-22T18:28:07.828Z,9.57
2023-02-22T18:30:37.282Z,9.52
2023-02-22T18:33:04.746Z,10.43
2023-02-22T18:35:31.706Z,10.50
2023-02-22T18:37:58.979Z,7.85
2023-02-22T18:40:26.288Z,8.73
2023-02-22T18:42:53.117Z,10.05
2023-02-22T18:45:21.224Z,8.50
2023-02-22T18:47:48.129Z,9.30
2023-02-22T18:50:17.284Z,9.23
2023-02-22T18:52:45.916Z,9.38
2023-02-22T18:55:19.172Z,8.85
2023-02-22T18:57:47.137Z,8.60
2023-02-22T19:00:19.928Z,8.85
2023-02-22T19:02:47.298Z,8.77
2023-02-22T19:05:17.401Z,8.63
2023-02-22T19:07:45.423Z,8.88
2023-02-22T19:10:12.731Z,8.02
2023-02-22T19:12:40.013Z,8.30
2023-02-22T19:15:07.986Z,8.43
2023-02-22T19:17:36.564Z,7.45
2023-02-22T19:20:08.870Z,7.00
2023-02-22T19:22:35.774Z,7.00
2023-02-22T19:25:04.316Z,7.97
2023-02-22T19:27:33.982Z,8.57
2023-02-22T19:30:01.180Z,9.75
2023-02-22T19:32:28.293Z,8.10
2023-02-22T19:35:02.270Z,9.95
2023-02-22T19:37:36.558Z,10.23
2023-02-22T19:40:09.806Z,10.23
2023-02-22T19:42:36.731Z,10.90
2023-02-22T19:45:03.747Z,10.02
2023-02-22T19:47:30.829Z,10.88
2023-02-22T19:49:59.739Z,11.80
2023-02-22T19:52:28.942Z,10.50
2023-02-22T19:54:56.393Z,10.10
2023-02-22T19:57:24.677Z,9.35
2023-02-22T19:59:52.050Z,8.68
2023-02-22T20:02:20.434Z,8.52
2023-02-22T20:04:50.115Z,8.50
2023-02-22T20:07:17.169Z,9.40
2023-02-22T20:09:44.447Z,9.40
2023-02-22T20:12:11.336Z,10.35
2023-02-22T20:14:38.796Z,10.93
2023-02-22T20:17:07.743Z,11.00
2023-02-22T20:19:37.224Z,10.77
2023-02-22T20:22:04.181Z,12.27
2023-02-22T20:24:31.109Z,12.32
2023-02-22T20:26:58.373Z,13.05
2023-02-22T20:29:32.276Z,14.25
2023-02-22T20:32:01.013Z,12.68
2023-02-22T20:34:32.345Z,12.60
2023-02-22T20:37:00.263Z,11.63
2023-02-22T20:39:27.339Z,11.60
2023-02-22T20:41:54.660Z,10.55
2023-02-22T20:44:22.241Z,10.85
2023-02-22T20:46:49.242Z,12.07
2023-02-22T20:49:19.380Z,12.52
2023-02-22T20:51:48.129Z,10.15
2023-02-22T20:54:15.945Z,10.27
2023-02-22T20:56:44.986Z,10.15
2023-02-22T20:59:13.924Z,9.95
2023-02-22T21:01:42.146Z,8.98
2023-02-22T21:04:10.597Z,9.20
2023-02-22T21:06:39.006Z,9.30
2023-02-22T21:09:10.284Z,8.98
2023-02-22T21:11:39.006Z,8.18
2023-02-22T21:14:06.293Z,9.18
2023-02-22T21:16:36.313Z,7.80
2023-02-22T21:19:06.984Z,7.75
2023-02-22T21:21:35.358Z,7.93
2023-02-22T21:24:02.781Z,8.23
2023-02-22T21:26:31.887Z,8.27
2023-02-22T21:29:00.813Z,7.38
2023-02-22T21:31:28.696Z,6.68
2023-02-22T21:33:57.996Z,7.22
2023-02-22T21:36:26.126Z,7.38
2023-02-22T21:39:03.115Z,7.20
2023-02-22T21:41:31.318Z,8.15
2023-02-22T21:43:59.329Z,7.55
2023-02-22T21:46:27.785Z,7.22
2023-02-22T21:48:58.734Z,8.05
2023-02-22T21:51:33.479Z,7.80
2023-02-22T21:54:08.354Z,9.50
2023-02-22T21:56:37.819Z,9.68
2023-02-22T21:59:19.018Z,10.47
2023-02-22T22:01:51.684Z,11.30
2023-02-22T22:04:27.644Z,12.35
2023-02-22T22:06:56.830Z,11.50
2023-02-22T22:09:24.567Z,10.40
2023-02-22T22:11:53.896Z,10.82
2023-02-22T22:14:24.621Z,9.52
2023-02-22T22:16:54.424Z,10.45
2023-02-22T22:19:21.392Z,10.32
2023-02-22T22:21:50.127Z,11.23
2023-02-22T22:24:19.972Z,10.95
2023-02-22T22:26:54.554Z,11.05
2023-02-22T22:29:28.669Z,10.45
2023-02-22T22:31:56.554Z,9.75
2023-02-22T22:34:29.477Z,10.45
2023-02-22T22:37:00.392Z,9.88
2023-02-22T22:39:27.648Z,11.02
2023-02-22T22:41:54.790Z,9.75
2023-02-22T22:44:28.798Z,11.25
2023-02-22T22:46:56.156Z,9.27
2023-02-22T22:49:25.431Z,9.82
2023-02-22T22:51:52.742Z,9.77
2023-02-22T22:54:20.001Z,9.95
2023-02-22T22:56:46.936Z,9.45
2023-02-22T22:59:13.976Z,9.63
2023-02-22T23:01:44.605Z,9.60
2023-02-22T23:04:16.214Z,9.95
2023-02-22T23:06:46.510Z,10.02
2023-02-22T23:09:19.473Z,9.85
2023-02-22T23:11:53.371Z,9.00
2023-02-22T23:14:31.241Z,10.65
2023-02-22T23:17:05.625Z,11.45
2023-02-22T23:19:34.617Z,10.63
2023-02-22T23:22:05.285Z,10.38
2023-02-22T23:24:36.111Z,10.70
2023-02-22T23:27:07.302Z,10.73
2023-02-22T23:29:38.002Z,11.07
2023-02-22T23:32:06.110Z,11.02
2023-02-22T23:34:33.546Z,11.75
2023-02-22T23:37:00.919Z,12.00
2023-02-22T23:39:28.092Z,11.52
2023-02-22T23:41:59.300Z,12.95
2023-02-22T23:44:27.517Z,11.52
2023-02-22T23:46:55.392Z,11.35
2023-02-22T23:49:26.398Z,13.55
2023-02-22T23:51:54.220Z,13.05
2023-02-22T23:54:24.314Z,14.25
2023-02-22T23:56:58.007Z,13.05
2023-02-22T23:59:27.051Z,12.48
